Huvudsida
METAR-TAF:

METAR-TAF

Flygplatser :

Heliport

Værøy, Norge

latitud: 67-39-16N, longitud: 12-43-37E, höjd: 5 m

Aktuellt väderrapport

Denna rapport gjordes för 7 timmar och 16 minuter sedan, klockan 15:50 UTC
Vind 15 kt från syd
Temperatur 11°C
Fuktighet 87%
Tryck 996 hPa
Sikt 10 km eller mer
Spridda moln på en höjd av 800 ft
Brutna moln på en höjd av 1300 ft
skurar i närheten,

METAR: ENVR 201550Z 19015KT 9999 VCSH SCT008 BKN013 11/09 Q0996

Tid: 01:06 (23:06 UTC)


TAF: saknas

Aktuella väderrapporter och prognoser från 4000 flygplatser (METAR- och TAF-rapporter).

De tillgängliga stationerna syns som gula och röda prickar på kartan.

För musen över prickarna för att se namnen på stationerna.

Klicka sedan för att få väderrapporter och prognoser.

För att ändra kartan: Klicka på de gröna knapparna med ett svart kors på för att zooma in; den gröna knappen med ett streck på för att zooma ut; eller på de gröna pilarna för angränsande kartor.


METAR-TAF: